createdAt,value
2023-02-08T00:02:12.063Z,70.78
2023-02-08T00:10:46.178Z,69.45
2023-02-08T00:15:03.856Z,68.43
2023-02-08T00:19:20.977Z,79.22
2023-02-08T00:27:55.568Z,72.50
2023-02-08T00:36:29.627Z,68.97
2023-02-08T00:45:04.352Z,62.80
2023-02-08T00:49:21.481Z,68.28
2023-02-08T00:57:56.196Z,63.88
2023-02-08T01:06:31.010Z,57.90
2023-02-08T01:10:48.152Z,66.72
2023-02-08T01:15:06.081Z,64.97
2023-02-08T01:19:23.278Z,68.05
2023-02-08T01:23:41.041Z,63.90
2023-02-08T01:27:59.079Z,72.50
2023-02-08T01:32:16.222Z,63.35
2023-02-08T01:40:50.689Z,67.47
2023-02-08T01:49:36.819Z,68.53
2023-02-08T01:53:56.802Z,63.90
2023-02-08T01:58:15.580Z,70.57
2023-02-08T02:02:33.563Z,67.30
2023-02-08T02:06:54.299Z,67.78
2023-02-08T02:11:11.439Z,64.75
2023-02-08T02:20:08.417Z,58.63
2023-02-08T02:24:42.151Z,61.45
2023-02-08T02:29:29.944Z,70.40
2023-02-08T02:33:59.817Z,69.35
2023-02-08T02:38:44.305Z,72.90
2023-02-08T02:43:39.282Z,67.63
2023-02-08T02:48:12.207Z,67.45
2023-02-08T02:52:38.786Z,64.32
2023-02-08T02:57:01.942Z,67.83
2023-02-08T03:01:26.137Z,62.95
2023-02-08T03:05:43.443Z,61.67
2023-02-08T03:10:18.597Z,56.15
2023-02-08T03:14:54.828Z,63.40
2023-02-08T03:19:26.213Z,57.33
2023-02-08T03:24:25.046Z,59.17
2023-02-08T03:28:54.157Z,55.03
2023-02-08T03:33:19.987Z,55.80
2023-02-08T03:37:46.371Z,53.40
2023-02-08T03:42:10.124Z,53.20
2023-02-08T03:46:34.440Z,55.08
2023-02-08T03:50:54.765Z,54.33
2023-02-08T03:55:20.336Z,51.22
2023-02-08T03:59:40.936Z,55.42
2023-02-08T04:03:59.674Z,57.00
2023-02-08T04:08:16.815Z,54.28
2023-02-08T04:12:33.919Z,56.63
2023-02-08T04:16:51.215Z,55.80
2023-02-08T04:21:08.441Z,54.17
2023-02-08T04:25:26.709Z,59.60
2023-02-08T04:29:43.895Z,97.10
2023-02-08T04:34:01.036Z,60.88
2023-02-08T04:38:18.463Z,52.72
2023-02-08T04:42:35.758Z,48.95
2023-02-08T04:46:53.282Z,77.75
2023-02-08T04:51:10.368Z,62.78
2023-02-08T04:55:27.553Z,53.03
2023-02-08T04:59:44.644Z,50.17
2023-02-08T05:04:01.810Z,44.45
2023-02-08T05:08:18.889Z,48.13
2023-02-08T05:12:36.043Z,45.28
2023-02-08T05:16:53.149Z,40.75
2023-02-08T05:21:10.643Z,48.88
2023-02-08T05:25:27.776Z,43.47
2023-02-08T05:29:44.896Z,43.15
2023-02-08T05:34:02.258Z,41.53
2023-02-08T05:38:19.333Z,39.83
2023-02-08T05:42:36.465Z,41.47
2023-02-08T05:46:53.608Z,36.83
2023-02-08T05:51:10.842Z,38.70
2023-02-08T05:55:28.601Z,37.78
2023-02-08T05:59:45.735Z,37.95
2023-02-08T06:04:02.964Z,42.08
2023-02-08T06:08:20.089Z,34.35
2023-02-08T06:12:37.256Z,34.25
2023-02-08T06:16:54.390Z,30.63
2023-02-08T06:21:12.413Z,31.98
2023-02-08T06:25:29.559Z,34.55
2023-02-08T06:29:46.735Z,40.90
2023-02-08T06:34:03.883Z,33.65
2023-02-08T06:38:21.353Z,29.65
2023-02-08T06:42:38.447Z,34.42
2023-02-08T06:46:55.536Z,31.45
2023-02-08T06:51:12.633Z,34.90
2023-02-08T06:55:29.700Z,48.05
2023-02-08T06:59:46.892Z,32.00
2023-02-08T07:04:04.261Z,35.63
2023-02-08T07:08:21.336Z,38.15
2023-02-08T07:12:38.438Z,45.70
2023-02-08T07:16:56.325Z,33.88
2023-02-08T07:21:13.782Z,39.78
2023-02-08T07:25:30.860Z,40.95
2023-02-08T07:29:47.940Z,34.25
2023-02-08T07:34:05.337Z,36.28
2023-02-08T07:38:22.485Z,40.95
2023-02-08T07:42:39.626Z,36.40
2023-02-08T07:51:13.702Z,43.40
2023-02-08T07:59:48.312Z,36.90
2023-02-08T08:04:05.477Z,46.10
2023-02-08T08:08:22.574Z,53.53
2023-02-08T08:12:39.685Z,62.55
2023-02-08T08:16:56.767Z,53.00
2023-02-08T08:21:15.324Z,47.88
2023-02-08T08:25:32.438Z,42.08
2023-02-08T08:29:49.558Z,37.80
2023-02-08T08:34:06.694Z,40.03
2023-02-08T08:38:23.815Z,33.80
2023-02-08T08:42:41.068Z,33.97
2023-02-08T08:46:59.404Z,36.80
2023-02-08T08:51:16.520Z,31.25
2023-02-08T08:55:33.594Z,29.13
2023-02-08T08:59:50.768Z,28.47
2023-02-08T09:04:08.694Z,32.15
2023-02-08T09:08:25.791Z,30.98
2023-02-08T09:12:42.977Z,32.10
2023-02-08T09:17:00.167Z,36.50
2023-02-08T09:21:21.213Z,36.00
2023-02-08T09:25:38.376Z,37.58
2023-02-08T09:29:55.653Z,36.53
2023-02-08T09:34:12.817Z,33.80
2023-02-08T09:38:29.959Z,33.30
2023-02-08T09:42:57.139Z,34.37
2023-02-08T09:47:18.419Z,33.75
2023-02-08T09:51:52.582Z,44.67
2023-02-08T09:56:14.241Z,38.22
2023-02-08T10:00:37.127Z,34.38
2023-02-08T10:05:15.554Z,39.65
2023-02-08T10:09:32.644Z,31.30
2023-02-08T10:14:04.764Z,30.73
2023-02-08T10:18:40.779Z,35.97
2023-02-08T10:23:00.938Z,34.97
2023-02-08T10:27:28.120Z,35.55
2023-02-08T10:31:53.162Z,37.17
2023-02-08T10:36:18.035Z,35.15
2023-02-08T10:40:39.391Z,60.55
2023-02-08T10:45:24.328Z,38.60
2023-02-08T10:49:50.153Z,34.30
2023-02-08T10:54:12.730Z,31.25
2023-02-08T10:58:30.675Z,31.58
2023-02-08T11:02:54.499Z,30.05
2023-02-08T11:07:21.461Z,29.92
2023-02-08T11:11:42.829Z,27.40
2023-02-08T11:16:03.332Z,31.35
2023-02-08T11:20:31.497Z,33.05
2023-02-08T11:25:00.894Z,40.43
2023-02-08T11:29:21.013Z,39.67
2023-02-08T11:33:38.128Z,50.38
2023-02-08T11:37:58.299Z,45.42
2023-02-08T11:42:35.014Z,46.30
2023-02-08T11:46:53.481Z,43.40
2023-02-08T11:51:14.304Z,51.10
2023-02-08T11:55:33.275Z,46.35
2023-02-08T11:59:52.433Z,48.30
2023-02-08T12:04:14.856Z,44.63
2023-02-08T12:08:52.138Z,63.53
2023-02-08T12:13:18.028Z,32.80
2023-02-08T12:17:53.238Z,31.17
2023-02-08T12:22:20.740Z,34.78
2023-02-08T12:27:01.570Z,31.30
2023-02-08T12:31:43.038Z,28.90
2023-02-08T12:36:24.001Z,30.75
2023-02-08T12:41:08.593Z,32.35
2023-02-08T12:45:59.513Z,31.92
2023-02-08T12:50:31.355Z,32.30
2023-02-08T12:54:58.582Z,34.03
2023-02-08T12:59:35.509Z,35.55
2023-02-08T13:03:56.438Z,41.17
2023-02-08T13:08:31.907Z,45.70
2023-02-08T13:12:53.312Z,42.88
2023-02-08T13:17:24.222Z,44.10
2023-02-08T13:21:43.737Z,43.75
2023-02-08T13:26:06.369Z,43.53
2023-02-08T13:30:24.119Z,46.13
2023-02-08T13:34:48.283Z,42.40
2023-02-08T13:39:08.934Z,40.33
2023-02-08T13:43:37.328Z,39.72
2023-02-08T13:48:05.064Z,37.60
2023-02-08T13:52:46.856Z,41.08
2023-02-08T13:57:43.253Z,40.20
2023-02-08T14:02:12.878Z,36.00
2023-02-08T14:06:31.234Z,34.10
2023-02-08T14:11:02.898Z,33.40
2023-02-08T14:15:26.251Z,32.10
2023-02-08T14:19:46.592Z,32.72
2023-02-08T14:24:19.055Z,33.53
2023-02-08T14:28:42.879Z,34.33
2023-02-08T14:33:07.309Z,33.25
2023-02-08T14:37:24.360Z,34.45
2023-02-08T14:42:01.146Z,35.67
2023-02-08T14:46:36.941Z,35.10
2023-02-08T14:51:09.532Z,33.17
2023-02-08T14:55:32.091Z,36.15
2023-02-08T14:59:50.593Z,38.05
2023-02-08T15:04:08.570Z,32.17
2023-02-08T15:08:25.696Z,35.92
2023-02-08T15:12:55.922Z,39.88
2023-02-08T15:17:32.302Z,37.28
2023-02-08T15:21:49.486Z,36.10
2023-02-08T15:26:20.754Z,37.50
2023-02-08T15:30:39.546Z,39.10
2023-02-08T15:35:00.328Z,39.90
2023-02-08T15:39:35.929Z,38.10
2023-02-08T15:44:03.080Z,38.25
2023-02-08T15:48:20.988Z,40.13
2023-02-08T15:52:38.263Z,36.15
2023-02-08T15:57:18.700Z,43.10
2023-02-08T16:01:36.001Z,40.25
2023-02-08T16:05:57.536Z,41.97
2023-02-08T16:10:25.484Z,37.75
2023-02-08T16:14:52.411Z,41.13
2023-02-08T16:19:30.566Z,43.70
2023-02-08T16:24:06.340Z,42.65
2023-02-08T16:28:32.062Z,48.10
2023-02-08T16:32:49.558Z,43.05
2023-02-08T16:37:33.304Z,43.40
2023-02-08T16:41:57.243Z,47.50
2023-02-08T16:46:22.635Z,57.75
2023-02-08T16:50:39.988Z,53.13
2023-02-08T16:54:58.712Z,60.23
2023-02-08T16:59:16.794Z,60.70
2023-02-08T17:03:36.548Z,58.35
2023-02-08T17:07:53.782Z,55.22
2023-02-08T17:12:21.811Z,55.00
2023-02-08T17:21:02.011Z,54.65
2023-02-08T17:25:20.174Z,56.13
2023-02-08T17:29:37.315Z,59.20
2023-02-08T17:33:55.636Z,51.43
2023-02-08T17:38:13.880Z,51.13
2023-02-08T17:42:32.395Z,54.90
2023-02-08T17:46:50.218Z,49.78
2023-02-08T17:51:17.384Z,50.47
2023-02-08T17:55:34.555Z,58.15
2023-02-08T17:59:51.821Z,54.13
2023-02-08T18:04:11.157Z,57.17
2023-02-08T18:08:28.629Z,56.13
2023-02-08T18:12:46.170Z,53.22
2023-02-08T18:17:03.370Z,56.88
2023-02-08T18:21:22.646Z,63.13
2023-02-08T18:25:41.516Z,62.92
2023-02-08T18:29:58.783Z,60.10
2023-02-08T18:34:19.033Z,63.10
2023-02-08T18:38:36.119Z,64.85
2023-02-08T18:42:53.221Z,65.50
2023-02-08T18:47:10.561Z,66.57
2023-02-08T18:51:30.096Z,66.97
2023-02-08T18:55:57.634Z,65.82
2023-02-08T19:00:15.694Z,76.27
2023-02-08T19:04:38.138Z,71.18
2023-02-08T19:08:58.339Z,70.90
2023-02-08T19:13:15.500Z,75.38
2023-02-08T19:17:32.662Z,69.30
2023-02-08T19:21:49.955Z,80.13
2023-02-08T19:26:15.942Z,69.38
2023-02-08T19:30:33.319Z,78.25
2023-02-08T19:34:50.440Z,74.88
2023-02-08T19:39:08.386Z,110.80
2023-02-08T19:43:25.602Z,80.00
2023-02-08T19:47:51.173Z,76.15
2023-02-08T19:52:08.968Z,84.28
2023-02-08T19:56:26.388Z,79.38
2023-02-08T20:00:43.568Z,72.03
2023-02-08T20:05:01.271Z,79.45
2023-02-08T20:09:18.435Z,74.72
2023-02-08T20:13:35.531Z,83.40
2023-02-08T20:17:52.617Z,77.68
2023-02-08T20:22:09.827Z,89.57
2023-02-08T20:26:28.385Z,75.15
2023-02-08T20:30:45.477Z,75.25
2023-02-08T20:35:02.650Z,80.18
2023-02-08T20:39:20.704Z,85.68
2023-02-08T20:43:37.944Z,79.05
2023-02-08T20:47:55.185Z,78.30
2023-02-08T20:52:12.367Z,74.18
2023-02-08T20:56:32.082Z,78.22
2023-02-08T21:00:49.531Z,78.03
2023-02-08T21:05:06.968Z,72.43
2023-02-08T21:09:24.118Z,83.28
2023-02-08T21:13:41.238Z,74.75
2023-02-08T21:17:58.386Z,66.75
2023-02-08T21:22:17.019Z,64.43
2023-02-08T21:26:34.138Z,69.35
2023-02-08T21:31:04.298Z,66.68
2023-02-08T21:35:21.599Z,64.97
2023-02-08T21:39:38.778Z,65.05
2023-02-08T21:43:58.277Z,57.30
2023-02-08T21:48:15.417Z,70.47
2023-02-08T21:52:51.404Z,71.50
2023-02-08T21:57:26.126Z,67.05
2023-02-08T22:01:43.257Z,68.88
2023-02-08T22:06:19.218Z,66.88
2023-02-08T22:10:36.383Z,57.30
2023-02-08T22:14:53.462Z,55.17
2023-02-08T22:19:10.668Z,63.92
2023-02-08T22:23:27.820Z,64.57
2023-02-08T22:27:45.586Z,61.70
2023-02-08T22:32:02.927Z,62.88
2023-02-08T22:40:40.132Z,60.73
2023-02-08T22:44:57.360Z,56.85
2023-02-08T22:49:14.462Z,62.80
2023-02-08T22:53:31.589Z,56.40
2023-02-08T22:57:48.701Z,52.72
2023-02-08T23:02:06.151Z,49.78
2023-02-08T23:06:23.285Z,47.10
2023-02-08T23:10:40.675Z,48.50
2023-02-08T23:14:57.789Z,47.22
2023-02-08T23:19:16.170Z,52.17
2023-02-08T23:23:33.294Z,49.65
2023-02-08T23:27:50.427Z,48.80
2023-02-08T23:32:07.564Z,55.05
2023-02-08T23:36:24.734Z,49.00
2023-02-08T23:40:42.148Z,45.58
2023-02-08T23:45:01.064Z,42.92
2023-02-08T23:49:18.190Z,43.83
2023-02-08T23:53:36.807Z,42.35
2023-02-08T23:57:53.951Z,40.25
